createdAt,value
2023-10-09T00:02:18.226Z,99118.91
2023-10-09T00:04:53.831Z,99116.44
2023-10-09T00:07:27.199Z,99114.69
2023-10-09T00:10:00.648Z,99105.88
2023-10-09T00:12:34.233Z,99097.97
2023-10-09T00:15:10.941Z,99092.72
2023-10-09T00:28:06.173Z,99060.06
2023-10-09T00:30:50.243Z,99053.94
2023-10-09T00:33:23.570Z,99054.91
2023-10-09T00:35:57.358Z,99045.13
2023-10-09T00:38:30.430Z,99046.34
2023-10-09T00:41:04.211Z,99032.09
2023-10-09T00:54:16.619Z,98983.44
2023-10-09T00:56:50.548Z,98984.41
2023-10-09T00:59:24.190Z,98976.50
2023-10-09T01:01:58.816Z,98977.56
2023-10-09T01:04:33.369Z,98975.84
2023-10-09T01:21:11.181Z,98967.53
2023-10-09T01:23:54.268Z,98984.56
2023-10-09T01:26:27.578Z,98948.88
2023-10-09T01:29:01.186Z,98929.41
2023-10-09T01:31:34.508Z,99010.59
2023-10-09T01:34:08.229Z,99076.78
2023-10-09T01:36:43.113Z,99054.81
2023-10-09T01:46:08.263Z,99002.56
2023-10-09T01:48:41.515Z,99007.16
2023-10-09T01:51:21.317Z,99001.81
2023-10-09T01:53:54.462Z,98984.03
2023-10-09T01:56:28.208Z,98982.31
2023-10-09T01:59:01.519Z,98980.63
2023-10-09T02:01:37.208Z,98959.22
2023-10-09T02:14:47.179Z,98912.41
2023-10-09T02:17:22.795Z,98892.81
2023-10-09T02:19:56.210Z,98902.69
2023-10-09T02:22:29.487Z,98912.50
2023-10-09T02:25:03.218Z,98908.16
2023-10-09T02:40:19.200Z,98823.16
2023-10-09T02:42:59.370Z,98847.47
2023-10-09T02:45:32.539Z,98835.03
2023-10-09T02:48:06.289Z,98811.09
2023-10-09T02:50:39.530Z,98799.50
2023-10-09T02:53:13.213Z,98803.16
2023-10-09T02:55:48.402Z,98794.28
2023-10-09T03:08:37.184Z,98742.41
2023-10-09T03:11:19.186Z,98754.06
2023-10-09T03:13:52.454Z,98750.53
2023-10-09T03:16:26.216Z,98737.25
2023-10-09T03:18:59.443Z,98722.06
2023-10-09T03:21:33.233Z,98706.00
2023-10-09T03:34:45.225Z,98669.00
2023-10-09T03:37:18.475Z,98644.91
2023-10-09T03:39:58.201Z,98637.88
2023-10-09T03:42:31.697Z,98628.16
2023-10-09T03:45:05.365Z,98618.28
2023-10-09T04:01:42.204Z,98618.09
2023-10-09T04:04:22.311Z,98636.81
2023-10-09T04:06:55.446Z,98657.47
2023-10-09T04:09:29.238Z,98671.69
2023-10-09T04:12:02.548Z,98666.47
2023-10-09T04:14:36.206Z,98670.84
2023-10-09T04:27:48.228Z,98639.31
2023-10-09T04:30:21.501Z,98629.56
2023-10-09T04:32:55.257Z,98623.50
2023-10-09T04:35:31.504Z,98628.97
2023-10-09T04:38:12.195Z,98624.59
2023-10-09T04:40:45.405Z,98639.75
2023-10-09T04:53:36.173Z,98591.44
2023-10-09T04:56:16.188Z,98584.41
2023-10-09T04:58:49.424Z,98553.28
2023-10-09T05:01:23.224Z,98543.56
2023-10-09T05:03:56.483Z,98537.59
2023-10-09T05:06:30.280Z,98533.31
2023-10-09T05:19:54.222Z,98482.66
2023-10-09T05:22:27.515Z,98497.00
2023-10-09T05:25:01.218Z,98498.91
2023-10-09T05:27:34.582Z,98491.13
2023-10-09T05:30:08.206Z,98491.22
2023-10-09T05:32:41.491Z,98481.53
2023-10-09T05:35:17.206Z,98478.00
2023-10-09T05:48:27.219Z,98445.53
2023-10-09T05:51:02.433Z,98443.81
2023-10-09T05:53:36.377Z,98440.41
2023-10-09T05:56:09.627Z,98443.19
2023-10-09T05:58:43.215Z,98452.06
2023-10-09T06:01:16.534Z,98453.88
2023-10-09T06:14:08.172Z,98467.13
2023-10-09T06:16:49.223Z,98461.66
2023-10-09T06:19:22.518Z,98465.19
2023-10-09T06:21:56.200Z,98462.53
2023-10-09T06:24:29.645Z,98457.19
2023-10-09T06:40:09.181Z,98434.09
2023-10-09T06:42:42.458Z,98435.06
2023-10-09T06:45:18.242Z,98437.84
2023-10-09T06:47:51.533Z,98439.69
2023-10-09T06:50:25.248Z,98457.53
2023-10-09T06:52:58.517Z,98459.34
2023-10-09T06:55:34.362Z,98461.16
2023-10-09T07:08:44.215Z,98477.44
2023-10-09T07:11:19.371Z,98483.59
2023-10-09T07:13:53.212Z,98484.47
2023-10-09T07:16:26.433Z,98492.50
2023-10-09T07:19:00.175Z,98478.25
2023-10-09T07:21:33.479Z,98479.13
2023-10-09T07:34:24.183Z,98528.31
2023-10-09T07:37:04.224Z,98526.34
2023-10-09T07:39:39.209Z,98513.88
2023-10-09T07:42:13.289Z,98507.66
2023-10-09T07:44:46.588Z,98503.06
2023-10-09T08:01:04.326Z,98507.00
2023-10-09T08:03:38.056Z,98520.34
2023-10-09T08:06:12.247Z,98511.38
2023-10-09T08:08:48.506Z,98509.66
2023-10-09T08:11:29.215Z,98517.56
2023-10-09T08:14:02.501Z,98513.06
2023-10-09T08:16:38.230Z,98513.06
2023-10-09T08:27:07.224Z,98516.47
2023-10-09T08:29:47.211Z,98509.44
2023-10-09T08:35:05.343Z,98497.78
2023-10-09T08:37:38.482Z,98500.44
2023-10-09T08:40:14.202Z,98507.50
2023-10-09T08:53:53.215Z,98523.22
2023-10-09T08:56:26.463Z,98520.53
2023-10-09T08:59:03.290Z,98523.09
2023-10-09T09:01:36.562Z,98504.50
2023-10-09T09:04:10.264Z,98512.41
2023-10-09T09:06:43.453Z,98504.38
2023-10-09T09:23:05.083Z,98533.09
2023-10-09T09:25:44.312Z,98530.53
2023-10-09T09:28:24.215Z,98527.75
2023-10-09T09:31:08.552Z,98527.75
2023-10-09T09:33:49.198Z,98535.66
2023-10-09T09:36:38.102Z,98548.16
2023-10-09T09:49:35.175Z,98529.25
2023-10-09T09:52:15.194Z,98528.28
2023-10-09T09:54:48.487Z,98516.59
2023-10-09T09:57:26.201Z,98531.78
2023-10-09T10:00:00.474Z,98539.69
2023-10-09T10:16:17.213Z,98525.25
2023-10-09T10:18:55.977Z,98546.75
2023-10-09T10:21:37.179Z,98535.09
2023-10-09T10:24:42.935Z,98537.75
2023-10-09T10:27:23.181Z,98530.50
2023-10-09T10:30:29.781Z,98525.16
2023-10-09T10:40:45.257Z,98530.50
2023-10-09T10:43:20.385Z,98525.03
2023-10-09T10:45:54.182Z,98526.81
2023-10-09T10:48:27.545Z,98531.34
2023-10-09T10:51:05.199Z,98536.69
2023-10-09T10:53:38.686Z,98530.50
2023-10-09T10:56:12.373Z,98538.50
2023-10-09T11:09:24.222Z,98523.44
2023-10-09T11:12:06.171Z,98512.63
2023-10-09T11:14:53.287Z,98526.81
2023-10-09T11:17:26.729Z,98516.13
2023-10-09T11:20:00.326Z,98518.72
2023-10-09T11:36:42.163Z,98525.16
2023-10-09T11:39:34.200Z,98518.94
2023-10-09T11:42:08.957Z,98518.09
2023-10-09T11:44:47.225Z,98507.41
2023-10-09T11:47:20.881Z,98514.44
2023-10-09T11:49:56.209Z,98511.53
2023-10-09T12:03:08.241Z,98514.44
2023-10-09T12:05:41.971Z,98524.41
2023-10-09T12:08:15.234Z,98516.38
2023-10-09T12:10:56.984Z,98519.16
2023-10-09T12:13:37.213Z,98510.41
2023-10-09T12:16:10.975Z,98522.81
2023-10-09T12:29:01.191Z,98513.19
2023-10-09T12:31:41.235Z,98512.31
2023-10-09T12:34:16.211Z,98516.84
2023-10-09T12:36:52.183Z,98518.53
2023-10-09T12:39:25.402Z,98515.00
2023-10-09T12:41:59.271Z,98514.91
2023-10-09T12:55:12.227Z,98500.78
2023-10-09T12:57:45.432Z,98507.94
2023-10-09T13:00:25.249Z,98518.53
2023-10-09T13:02:58.764Z,98501.00
2023-10-09T13:05:32.184Z,98506.34
2023-10-09T13:08:12.398Z,98509.78
2023-10-09T13:10:54.309Z,98500.78
2023-10-09T13:21:24.165Z,98488.19
2023-10-09T13:24:04.350Z,98489.84
2023-10-09T13:26:40.149Z,98495.13
2023-10-09T13:29:14.710Z,98495.94
2023-10-09T13:31:49.832Z,98495.94
2023-10-09T13:34:23.220Z,98487.09
2023-10-09T13:36:56.454Z,98497.78
2023-10-09T13:49:47.172Z,98495.94
2023-10-09T13:52:27.187Z,98498.63
2023-10-09T13:55:00.449Z,98497.78
2023-10-09T13:57:34.170Z,98497.78
2023-10-09T14:00:09.262Z,98508.47
2023-10-09T14:16:32.198Z,98504.81
2023-10-09T14:19:05.503Z,98505.81
2023-10-09T14:21:39.265Z,98505.81
2023-10-09T14:24:12.456Z,98510.28
2023-10-09T14:26:46.301Z,98506.66
2023-10-09T14:29:19.495Z,98498.63
2023-10-09T14:31:55.247Z,98486.22
2023-10-09T14:41:40.183Z,98498.97
2023-10-09T14:44:20.269Z,98501.53
2023-10-09T14:46:55.386Z,98503.34
2023-10-09T14:49:29.166Z,98512.13
2023-10-09T14:52:02.611Z,98511.25
2023-10-09T14:54:36.173Z,98517.59
2023-10-09T14:57:09.411Z,98521.94
2023-10-09T15:10:00.177Z,98517.03
2023-10-09T15:12:44.426Z,98518.03
2023-10-09T15:15:18.737Z,98522.38
2023-10-09T15:17:52.288Z,98519.72
2023-10-09T15:20:25.541Z,98517.03
2023-10-09T15:36:41.189Z,98513.41
2023-10-09T15:39:14.619Z,98520.47
2023-10-09T15:41:48.236Z,98521.56
2023-10-09T15:44:21.492Z,98527.75
2023-10-09T15:46:55.223Z,98532.25
2023-10-09T15:49:28.953Z,98538.44
2023-10-09T15:52:04.203Z,98529.69
2023-10-09T16:01:54.259Z,98527.56
2023-10-09T16:04:34.183Z,98530.53
2023-10-09T16:07:09.465Z,98533.31
2023-10-09T16:09:43.199Z,98534.16
2023-10-09T16:12:16.430Z,98540.38
2023-10-09T16:14:50.200Z,98544.84
2023-10-09T16:28:41.303Z,98543.16
2023-10-09T16:31:14.465Z,98539.50
2023-10-09T16:33:48.261Z,98544.03
2023-10-09T16:36:21.493Z,98533.31
2023-10-09T16:38:55.172Z,98531.63
2023-10-09T16:41:28.447Z,98530.78
2023-10-09T17:00:18.265Z,98552.38
2023-10-09T17:02:45.814Z,98549.81
2023-10-09T17:05:26.221Z,98560.50
2023-10-09T17:08:00.648Z,98552.50
2023-10-09T17:10:34.168Z,98552.50
2023-10-09T17:23:46.191Z,98571.19
2023-10-09T17:26:19.650Z,98560.50
2023-10-09T17:28:53.300Z,98570.25
2023-10-09T17:31:26.579Z,98573.75
2023-10-09T17:34:00.368Z,98570.31
2023-10-09T17:36:33.434Z,98567.56
2023-10-09T17:49:24.145Z,98582.09
2023-10-09T17:52:04.175Z,98574.19
2023-10-09T17:54:37.996Z,98577.00
2023-10-09T17:57:11.179Z,98575.28
2023-10-09T17:59:44.427Z,98584.25
2023-10-09T18:02:20.521Z,98583.53
2023-10-09T18:15:41.187Z,98582.53
2023-10-09T18:18:14.536Z,98578.91
2023-10-09T18:20:48.189Z,98580.84
2023-10-09T18:23:21.486Z,98587.88
2023-10-09T18:25:55.246Z,98587.88
2023-10-09T18:28:28.547Z,98589.84
2023-10-09T18:31:04.223Z,98586.19
2023-10-09T18:44:14.299Z,98598.69
2023-10-09T18:46:49.518Z,98597.72
2023-10-09T18:49:23.174Z,98600.53
2023-10-09T18:51:56.912Z,98596.03
2023-10-09T18:54:30.190Z,98596.91
2023-10-09T18:57:03.633Z,98593.22
2023-10-09T19:09:54.164Z,98587.16
2023-10-09T19:12:34.216Z,98585.34
2023-10-09T19:15:09.469Z,98591.53
2023-10-09T19:17:43.256Z,98583.53
2023-10-09T19:20:16.484Z,98586.19
2023-10-09T19:36:32.186Z,98582.53
2023-10-09T19:39:05.502Z,98579.03
2023-10-09T19:41:53.257Z,98580.84
2023-10-09T19:44:26.494Z,98571.97
2023-10-09T19:47:00.225Z,98568.47
2023-10-09T19:49:34.022Z,98566.75
2023-10-09T19:52:09.206Z,98563.13
2023-10-09T20:02:39.263Z,98573.69
2023-10-09T20:05:21.241Z,98577.19
2023-10-09T20:07:56.405Z,98571.00
2023-10-09T20:10:30.202Z,98576.25
2023-10-09T20:13:03.967Z,98580.75
2023-10-09T20:15:37.168Z,98578.06
2023-10-09T20:29:23.256Z,98577.31
2023-10-09T20:31:56.555Z,98575.59
2023-10-09T20:34:30.177Z,98584.50
2023-10-09T20:37:03.445Z,98580.94
2023-10-09T20:39:37.180Z,98579.16
2023-10-09T20:42:10.435Z,98580.84
2023-10-09T20:44:46.270Z,98578.28
2023-10-09T20:47:19.444Z,98582.78
2023-10-09T20:56:43.201Z,98599.66
2023-10-09T20:59:16.614Z,98603.19
2023-10-09T21:01:52.353Z,98600.63
2023-10-09T21:04:25.497Z,98608.53
2023-10-09T21:06:59.170Z,98610.25
2023-10-09T21:09:32.477Z,98604.03
2023-10-09T21:12:06.177Z,98607.59
2023-10-09T21:25:18.165Z,98618.03
2023-10-09T21:27:53.156Z,98623.38
2023-10-09T21:30:27.203Z,98625.09
2023-10-09T21:33:00.705Z,98619.75
2023-10-09T21:35:36.213Z,98623.38
2023-10-09T21:49:32.267Z,98627.00
2023-10-09T21:52:07.429Z,98630.66
2023-10-09T21:54:41.201Z,98619.94
2023-10-09T21:57:14.497Z,98625.28
2023-10-09T21:59:48.156Z,98619.94
2023-10-09T22:02:21.572Z,98627.00
2023-10-09T22:04:55.211Z,98621.66
2023-10-09T22:07:32.849Z,98616.31
2023-10-09T22:17:27.246Z,98621.47
2023-10-09T22:20:00.481Z,98612.56
2023-10-09T22:22:36.201Z,98616.13
2023-10-09T22:25:09.737Z,98617.84
2023-10-09T22:27:43.195Z,98618.66
2023-10-09T22:30:17.155Z,98620.59
2023-10-09T22:43:12.385Z,98622.94
2023-10-09T22:45:52.360Z,98630.97
2023-10-09T22:48:25.414Z,98624.66
2023-10-09T22:50:59.341Z,98630.84
2023-10-09T22:53:32.454Z,98620.16
2023-10-09T22:56:07.209Z,98622.81
2023-10-09T23:09:58.162Z,98623.91
2023-10-09T23:12:31.410Z,98624.66
2023-10-09T23:15:05.190Z,98630.84
2023-10-09T23:17:38.442Z,98631.72
2023-10-09T23:20:14.226Z,98629.03
2023-10-09T23:22:47.430Z,98636.94
2023-10-09T23:25:23.179Z,98635.09
2023-10-09T23:38:33.604Z,98643.75
2023-10-09T23:41:09.395Z,98645.47
2023-10-09T23:43:43.169Z,98652.66
2023-10-09T23:46:16.449Z,98650.81
2023-10-09T23:48:57.185Z,98656.03
2023-10-09T23:51:30.397Z,98650.69
